sensor_id;sensor_type;location;lat;lon;timestamp;temperature;humidity
7738;DHT22;29398;45.328;5.558;2022-09-09T00:00:55;20.40;99.90
7738;DHT22;29398;45.328;5.558;2022-09-09T00:02:03;20.40;99.90
7738;DHT22;29398;45.328;5.558;2022-09-09T00:03:12;20.40;99.90
7738;DHT22;29398;45.328;5.558;2022-09-09T00:04:20;20.40;99.90
7738;DHT22;29398;45.328;5.558;2022-09-09T00:05:30;20.30;99.90
7738;DHT22;29398;45.328;5.558;2022-09-09T00:06:42;20.20;99.90
7738;DHT22;29398;45.328;5.558;2022-09-09T00:07:47;20.20;99.90
7738;DHT22;29398;45.328;5.558;2022-09-09T00:09:00;20.10;99.90
7738;DHT22;29398;45.328;5.558;2022-09-09T00:10:13;21.30;99.90
7738;DHT22;29398;45.328;5.558;2022-09-09T00:11:20;20.10;99.90
7738;DHT22;29398;45.328;5.558;2022-09-09T00:12:32;20.00;99.90
7738;DHT22;29398;45.328;5.558;2022-09-09T00:13:38;20.00;99.90
7738;DHT22;29398;45.328;5.558;2022-09-09T00:14:47;19.90;99.90
7738;DHT22;29398;45.328;5.558;2022-09-09T00:15:57;19.90;99.90
7738;DHT22;29398;45.328;5.558;2022-09-09T00:17:03;19.90;99.90
7738;DHT22;29398;45.328;5.558;2022-09-09T00:18:13;19.90;99.90
7738;DHT22;29398;45.328;5.558;2022-09-09T00:19:22;19.90;99.90
7738;DHT22;29398;45.328;5.558;2022-09-09T00:20:30;19.80;99.90
7738;DHT22;29398;45.328;5.558;2022-09-09T00:21:36;19.80;99.90
7738;DHT22;29398;45.328;5.558;2022-09-09T00:22:43;19.70;99.90
7738;DHT22;29398;45.328;5.558;2022-09-09T00:23:49;19.70;99.90
7738;DHT22;29398;45.328;5.558;2022-09-09T00:24:53;19.60;99.90
7738;DHT22;29398;45.328;5.558;2022-09-09T00:26:02;19.60;99.90
7738;DHT22;29398;45.328;5.558;2022-09-09T00:27:09;19.60;99.90
7738;DHT22;29398;45.328;5.558;2022-09-09T00:28:18;19.60;99.90
7738;DHT22;29398;45.328;5.558;2022-09-09T00:29:28;19.60;99.90
7738;DHT22;29398;45.328;5.558;2022-09-09T00:30:33;19.60;99.90
7738;DHT22;29398;45.328;5.558;2022-09-09T00:31:36;19.60;99.90
7738;DHT22;29398;45.328;5.558;2022-09-09T00:32:38;19.50;99.90
7738;DHT22;29398;45.328;5.558;2022-09-09T00:33:40;19.50;99.90
7738;DHT22;29398;45.328;5.558;2022-09-09T00:34:48;19.50;99.90
7738;DHT22;29398;45.328;5.558;2022-09-09T00:35:53;19.50;99.90
7738;DHT22;29398;45.328;5.558;2022-09-09T00:36:57;19.40;99.90
7738;DHT22;29398;45.328;5.558;2022-09-09T00:38:04;19.40;99.90
7738;DHT22;29398;45.328;5.558;2022-09-09T00:39:12;19.40;99.90
7738;DHT22;29398;45.328;5.558;2022-09-09T00:40:23;19.40;99.90
7738;DHT22;29398;45.328;5.558;2022-09-09T00:41:45;19.30;99.90
7738;DHT22;29398;45.328;5.558;2022-09-09T00:42:54;19.30;99.90
7738;DHT22;29398;45.328;5.558;2022-09-09T00:44:06;19.30;99.90
7738;DHT22;29398;45.328;5.558;2022-09-09T00:45:32;19.30;99.90
7738;DHT22;29398;45.328;5.558;2022-09-09T00:46:48;19.30;99.90
7738;DHT22;29398;45.328;5.558;2022-09-09T00:47:53;19.30;99.90
7738;DHT22;29398;45.328;5.558;2022-09-09T00:49:05;19.30;99.90
7738;DHT22;29398;45.328;5.558;2022-09-09T00:50:28;19.30;99.90
7738;DHT22;29398;45.328;5.558;2022-09-09T00:51:43;19.30;99.90
7738;DHT22;29398;45.328;5.558;2022-09-09T00:52:58;19.20;99.90
7738;DHT22;29398;45.328;5.558;2022-09-09T00:54:13;19.10;99.90
7738;DHT22;29398;45.328;5.558;2022-09-09T00:55:23;19.00;99.90
7738;DHT22;29398;45.328;5.558;2022-09-09T00:56:32;18.90;99.90
7738;DHT22;29398;45.328;5.558;2022-09-09T00:57:36;18.90;99.90
7738;DHT22;29398;45.328;5.558;2022-09-09T00:58:38;18.90;99.90
7738;DHT22;29398;45.328;5.558;2022-09-09T00:59:46;18.90;99.90
7738;DHT22;29398;45.328;5.558;2022-09-09T01:00:52;18.90;99.90
7738;DHT22;29398;45.328;5.558;2022-09-09T01:01:59;18.90;99.90
7738;DHT22;29398;45.328;5.558;2022-09-09T01:03:18;19.00;99.90
7738;DHT22;29398;45.328;5.558;2022-09-09T01:05:33;19.00;99.90
7738;DHT22;29398;45.328;5.558;2022-09-09T01:06:38;19.00;99.90
7738;DHT22;29398;45.328;5.558;2022-09-09T01:07:42;19.00;99.90
7738;DHT22;29398;45.328;5.558;2022-09-09T01:09:08;19.00;99.90
7738;DHT22;29398;45.328;5.558;2022-09-09T01:10:17;18.90;99.90
7738;DHT22;29398;45.328;5.558;2022-09-09T01:11:24;19.00;99.90
7738;DHT22;29398;45.328;5.558;2022-09-09T01:12:37;19.00;99.90
7738;DHT22;29398;45.328;5.558;2022-09-09T01:13:42;19.00;99.90
7738;DHT22;29398;45.328;5.558;2022-09-09T01:14:48;19.00;99.90
7738;DHT22;29398;45.328;5.558;2022-09-09T01:15:53;19.00;99.90
7738;DHT22;29398;45.328;5.558;2022-09-09T01:16:58;19.00;99.90
7738;DHT22;29398;45.328;5.558;2022-09-09T01:18:05;19.00;99.90
7738;DHT22;29398;45.328;5.558;2022-09-09T01:19:15;19.00;99.90
7738;DHT22;29398;45.328;5.558;2022-09-09T01:20:23;18.90;99.90
7738;DHT22;29398;45.328;5.558;2022-09-09T01:21:37;18.90;99.90
7738;DHT22;29398;45.328;5.558;2022-09-09T01:22:47;18.80;99.90
7738;DHT22;29398;45.328;5.558;2022-09-09T01:24:08;18.90;99.90
7738;DHT22;29398;45.328;5.558;2022-09-09T01:27:06;20.80;99.90
7738;DHT22;29398;45.328;5.558;2022-09-09T01:28:11;18.60;99.90
7738;DHT22;29398;45.328;5.558;2022-09-09T01:29:16;18.60;99.90
7738;DHT22;29398;45.328;5.558;2022-09-09T01:30:19;18.50;99.90
7738;DHT22;29398;45.328;5.558;2022-09-09T01:31:24;18.50;99.90
7738;DHT22;29398;45.328;5.558;2022-09-09T01:32:41;18.50;99.90
7738;DHT22;29398;45.328;5.558;2022-09-09T01:33:43;18.40;99.90
7738;DHT22;29398;45.328;5.558;2022-09-09T01:34:46;18.40;99.90
7738;DHT22;29398;45.328;5.558;2022-09-09T01:35:52;18.30;99.90
7738;DHT22;29398;45.328;5.558;2022-09-09T01:37:01;18.30;99.90
7738;DHT22;29398;45.328;5.558;2022-09-09T01:38:05;18.40;99.90
7738;DHT22;29398;45.328;5.558;2022-09-09T01:39:07;18.30;99.90
7738;DHT22;29398;45.328;5.558;2022-09-09T01:41:13;18.30;99.90
7738;DHT22;29398;45.328;5.558;2022-09-09T01:42:23;18.40;99.90
7738;DHT22;29398;45.328;5.558;2022-09-09T01:43:25;18.40;99.90
7738;DHT22;29398;45.328;5.558;2022-09-09T01:44:29;18.30;99.90
7738;DHT22;29398;45.328;5.558;2022-09-09T01:45:30;18.40;99.90
7738;DHT22;29398;45.328;5.558;2022-09-09T01:46:33;18.40;99.90
7738;DHT22;29398;45.328;5.558;2022-09-09T01:47:35;18.40;99.90
7738;DHT22;29398;45.328;5.558;2022-09-09T01:48:52;18.40;99.90
7738;DHT22;29398;45.328;5.558;2022-09-09T01:49:54;18.30;99.90
7738;DHT22;29398;45.328;5.558;2022-09-09T01:51:00;18.30;99.90
7738;DHT22;29398;45.328;5.558;2022-09-09T01:52:01;18.30;99.90
7738;DHT22;29398;45.328;5.558;2022-09-09T01:53:10;18.30;99.90
7738;DHT22;29398;45.328;5.558;2022-09-09T01:54:12;18.30;99.90
7738;DHT22;29398;45.328;5.558;2022-09-09T01:55:15;18.30;99.90
7738;DHT22;29398;45.328;5.558;2022-09-09T01:56:39;18.30;99.90
7738;DHT22;29398;45.328;5.558;2022-09-09T01:57:52;18.30;99.90
7738;DHT22;29398;45.328;5.558;2022-09-09T01:59:06;18.30;99.90
7738;DHT22;29398;45.328;5.558;2022-09-09T02:00:13;18.30;99.90
7738;DHT22;29398;45.328;5.558;2022-09-09T02:01:23;18.40;99.90
7738;DHT22;29398;45.328;5.558;2022-09-09T02:02:32;18.30;99.90
7738;DHT22;29398;45.328;5.558;2022-09-09T02:03:52;18.30;99.90
7738;DHT22;29398;45.328;5.558;2022-09-09T02:04:59;18.30;99.90
7738;DHT22;29398;45.328;5.558;2022-09-09T02:06:08;18.30;99.90
7738;DHT22;29398;45.328;5.558;2022-09-09T02:07:31;18.30;99.90
7738;DHT22;29398;45.328;5.558;2022-09-09T02:08:42;18.30;99.90
7738;DHT22;29398;45.328;5.558;2022-09-09T02:09:49;18.30;99.90
7738;DHT22;29398;45.328;5.558;2022-09-09T02:10:56;18.30;99.90
7738;DHT22;29398;45.328;5.558;2022-09-09T02:12:14;18.30;99.90
7738;DHT22;29398;45.328;5.558;2022-09-09T02:13:26;18.30;99.90
7738;DHT22;29398;45.328;5.558;2022-09-09T02:14:31;18.20;99.90
7738;DHT22;29398;45.328;5.558;2022-09-09T02:15:43;18.20;99.90
7738;DHT22;29398;45.328;5.558;2022-09-09T02:16:51;18.20;99.90
7738;DHT22;29398;45.328;5.558;2022-09-09T02:18:01;18.10;99.90
7738;DHT22;29398;45.328;5.558;2022-09-09T02:19:09;18.10;99.90
7738;DHT22;29398;45.328;5.558;2022-09-09T02:20:25;18.10;99.90
7738;DHT22;29398;45.328;5.558;2022-09-09T02:21:32;18.10;99.90
7738;DHT22;29398;45.328;5.558;2022-09-09T02:22:37;18.10;99.90
7738;DHT22;29398;45.328;5.558;2022-09-09T02:23:42;18.10;99.90
7738;DHT22;29398;45.328;5.558;2022-09-09T02:24:47;18.10;99.90
7738;DHT22;29398;45.328;5.558;2022-09-09T02:27:02;18.10;99.90
7738;DHT22;29398;45.328;5.558;2022-09-09T02:28:08;18.10;99.90
7738;DHT22;29398;45.328;5.558;2022-09-09T02:29:16;18.10;99.90
7738;DHT22;29398;45.328;5.558;2022-09-09T02:30:20;18.10;99.90
7738;DHT22;29398;45.328;5.558;2022-09-09T02:31:28;18.10;99.90
7738;DHT22;29398;45.328;5.558;2022-09-09T02:32:37;18.10;99.90
7738;DHT22;29398;45.328;5.558;2022-09-09T02:33:45;18.00;99.90
7738;DHT22;29398;45.328;5.558;2022-09-09T02:34:50;18.00;99.90
7738;DHT22;29398;45.328;5.558;2022-09-09T02:35:53;17.90;99.90
7738;DHT22;29398;45.328;5.558;2022-09-09T02:36:59;17.90;99.90
7738;DHT22;29398;45.328;5.558;2022-09-09T02:38:04;17.90;99.90
7738;DHT22;29398;45.328;5.558;2022-09-09T02:39:10;17.90;99.90
7738;DHT22;29398;45.328;5.558;2022-09-09T02:40:12;17.90;99.90
7738;DHT22;29398;45.328;5.558;2022-09-09T02:41:21;17.90;99.90
7738;DHT22;29398;45.328;5.558;2022-09-09T02:42:25;17.90;99.90
7738;DHT22;29398;45.328;5.558;2022-09-09T02:43:31;17.90;99.90
7738;DHT22;29398;45.328;5.558;2022-09-09T02:44:35;17.90;99.90
7738;DHT22;29398;45.328;5.558;2022-09-09T02:45:43;17.90;99.90
7738;DHT22;29398;45.328;5.558;2022-09-09T02:48:31;17.80;99.90
7738;DHT22;29398;45.328;5.558;2022-09-09T02:49:43;17.80;99.90
7738;DHT22;29398;45.328;5.558;2022-09-09T02:50:53;17.80;99.90
7738;DHT22;29398;45.328;5.558;2022-09-09T02:52:02;17.80;99.90
7738;DHT22;29398;45.328;5.558;2022-09-09T02:53:11;17.80;99.90
7738;DHT22;29398;45.328;5.558;2022-09-09T02:54:22;17.80;99.90
7738;DHT22;29398;45.328;5.558;2022-09-09T02:55:32;17.80;99.90
7738;DHT22;29398;45.328;5.558;2022-09-09T02:56:41;17.80;99.90
7738;DHT22;29398;45.328;5.558;2022-09-09T02:57:47;17.80;99.90
7738;DHT22;29398;45.328;5.558;2022-09-09T02:58:51;17.80;99.90
7738;DHT22;29398;45.328;5.558;2022-09-09T02:59:57;17.80;99.90
7738;DHT22;29398;45.328;5.558;2022-09-09T03:00:59;17.70;99.90
7738;DHT22;29398;45.328;5.558;2022-09-09T03:02:02;17.70;99.90
7738;DHT22;29398;45.328;5.558;2022-09-09T03:03:04;17.70;99.90
7738;DHT22;29398;45.328;5.558;2022-09-09T03:04:08;17.70;99.90
7738;DHT22;29398;45.328;5.558;2022-09-09T03:05:11;17.70;99.90
7738;DHT22;29398;45.328;5.558;2022-09-09T03:06:14;17.70;99.90
7738;DHT22;29398;45.328;5.558;2022-09-09T03:07:20;17.70;99.90
7738;DHT22;29398;45.328;5.558;2022-09-09T03:08:23;17.60;99.90
7738;DHT22;29398;45.328;5.558;2022-09-09T03:09:25;17.60;99.90
7738;DHT22;29398;45.328;5.558;2022-09-09T03:10:27;17.50;99.90
7738;DHT22;29398;45.328;5.558;2022-09-09T03:11:30;17.50;99.90
7738;DHT22;29398;45.328;5.558;2022-09-09T03:12:32;17.50;99.90
7738;DHT22;29398;45.328;5.558;2022-09-09T03:13:34;17.50;99.90
7738;DHT22;29398;45.328;5.558;2022-09-09T03:14:35;17.50;99.90
7738;DHT22;29398;45.328;5.558;2022-09-09T03:15:39;17.50;99.90
7738;DHT22;29398;45.328;5.558;2022-09-09T03:16:42;17.50;99.90
7738;DHT22;29398;45.328;5.558;2022-09-09T03:17:45;17.50;99.90
7738;DHT22;29398;45.328;5.558;2022-09-09T03:18:46;17.50;99.90
7738;DHT22;29398;45.328;5.558;2022-09-09T03:19:48;17.40;99.90
7738;DHT22;29398;45.328;5.558;2022-09-09T03:20:51;17.50;99.90
7738;DHT22;29398;45.328;5.558;2022-09-09T03:21:54;17.50;99.90
7738;DHT22;29398;45.328;5.558;2022-09-09T03:22:57;17.50;99.90
7738;DHT22;29398;45.328;5.558;2022-09-09T03:23:59;17.50;99.90
7738;DHT22;29398;45.328;5.558;2022-09-09T03:25:00;17.50;99.90
7738;DHT22;29398;45.328;5.558;2022-09-09T03:26:03;17.40;99.90
7738;DHT22;29398;45.328;5.558;2022-09-09T03:27:14;17.40;99.90
7738;DHT22;29398;45.328;5.558;2022-09-09T03:28:17;17.40;99.90
7738;DHT22;29398;45.328;5.558;2022-09-09T03:29:18;17.40;99.90
7738;DHT22;29398;45.328;5.558;2022-09-09T03:30:20;17.40;99.90
7738;DHT22;29398;45.328;5.558;2022-09-09T03:31:23;17.40;99.90
7738;DHT22;29398;45.328;5.558;2022-09-09T03:32:26;17.40;99.90
7738;DHT22;29398;45.328;5.558;2022-09-09T03:33:29;17.30;99.90
7738;DHT22;29398;45.328;5.558;2022-09-09T03:34:31;17.30;99.90
7738;DHT22;29398;45.328;5.558;2022-09-09T03:35:33;17.30;99.90
7738;DHT22;29398;45.328;5.558;2022-09-09T03:36:37;17.10;99.90
7738;DHT22;29398;45.328;5.558;2022-09-09T03:37:39;17.10;99.90
7738;DHT22;29398;45.328;5.558;2022-09-09T03:38:42;17.00;99.90
7738;DHT22;29398;45.328;5.558;2022-09-09T03:39:45;17.00;99.90
7738;DHT22;29398;45.328;5.558;2022-09-09T03:40:51;17.00;99.90
7738;DHT22;29398;45.328;5.558;2022-09-09T03:41:56;17.00;99.90
7738;DHT22;29398;45.328;5.558;2022-09-09T03:42:57;17.00;99.90
7738;DHT22;29398;45.328;5.558;2022-09-09T03:44:00;16.80;99.90
7738;DHT22;29398;45.328;5.558;2022-09-09T03:45:06;17.00;99.90
7738;DHT22;29398;45.328;5.558;2022-09-09T03:46:11;17.00;99.90
7738;DHT22;29398;45.328;5.558;2022-09-09T03:47:13;17.00;99.90
7738;DHT22;29398;45.328;5.558;2022-09-09T03:48:17;17.00;99.90
7738;DHT22;29398;45.328;5.558;2022-09-09T03:49:18;17.00;99.90
7738;DHT22;29398;45.328;5.558;2022-09-09T03:50:21;17.00;99.90
7738;DHT22;29398;45.328;5.558;2022-09-09T03:51:22;17.00;99.90
7738;DHT22;29398;45.328;5.558;2022-09-09T03:52:25;17.00;99.90
7738;DHT22;29398;45.328;5.558;2022-09-09T03:53:29;17.00;99.90
7738;DHT22;29398;45.328;5.558;2022-09-09T03:54:31;16.90;99.90
7738;DHT22;29398;45.328;5.558;2022-09-09T03:55:32;16.90;99.90
7738;DHT22;29398;45.328;5.558;2022-09-09T03:56:36;16.90;99.90
7738;DHT22;29398;45.328;5.558;2022-09-09T03:57:37;16.90;99.90
7738;DHT22;29398;45.328;5.558;2022-09-09T03:58:42;16.90;99.90
7738;DHT22;29398;45.328;5.558;2022-09-09T03:59:45;16.90;99.90
7738;DHT22;29398;45.328;5.558;2022-09-09T04:00:53;17.00;99.90
7738;DHT22;29398;45.328;5.558;2022-09-09T04:01:54;16.90;99.90
7738;DHT22;29398;45.328;5.558;2022-09-09T04:02:59;16.90;99.90
7738;DHT22;29398;45.328;5.558;2022-09-09T04:04:01;16.90;99.90
7738;DHT22;29398;45.328;5.558;2022-09-09T04:05:04;16.90;99.90
7738;DHT22;29398;45.328;5.558;2022-09-09T04:06:08;16.90;99.90
7738;DHT22;29398;45.328;5.558;2022-09-09T04:07:11;16.90;99.90
7738;DHT22;29398;45.328;5.558;2022-09-09T04:08:14;16.90;99.90
7738;DHT22;29398;45.328;5.558;2022-09-09T04:09:17;16.80;99.90
7738;DHT22;29398;45.328;5.558;2022-09-09T04:10:18;16.90;99.90
7738;DHT22;29398;45.328;5.558;2022-09-09T04:11:22;16.80;99.90
7738;DHT22;29398;45.328;5.558;2022-09-09T04:12:25;16.90;99.90
7738;DHT22;29398;45.328;5.558;2022-09-09T04:13:28;16.90;99.90
7738;DHT22;29398;45.328;5.558;2022-09-09T04:14:31;17.00;99.90
7738;DHT22;29398;45.328;5.558;2022-09-09T04:15:33;17.00;99.90
7738;DHT22;29398;45.328;5.558;2022-09-09T04:16:36;17.00;99.90
7738;DHT22;29398;45.328;5.558;2022-09-09T04:17:38;17.00;99.90
7738;DHT22;29398;45.328;5.558;2022-09-09T04:18:41;17.00;99.90
7738;DHT22;29398;45.328;5.558;2022-09-09T04:19:43;16.90;99.90
7738;DHT22;29398;45.328;5.558;2022-09-09T04:20:46;16.90;99.90
7738;DHT22;29398;45.328;5.558;2022-09-09T04:21:48;16.90;99.90
7738;DHT22;29398;45.328;5.558;2022-09-09T04:22:52;16.90;99.90
7738;DHT22;29398;45.328;5.558;2022-09-09T04:23:53;16.90;99.90
7738;DHT22;29398;45.328;5.558;2022-09-09T04:24:56;16.90;99.90
7738;DHT22;29398;45.328;5.558;2022-09-09T04:25:58;16.90;99.90
7738;DHT22;29398;45.328;5.558;2022-09-09T04:27:01;16.90;99.90
7738;DHT22;29398;45.328;5.558;2022-09-09T04:28:03;16.90;99.90
7738;DHT22;29398;45.328;5.558;2022-09-09T04:29:05;16.80;99.90
7738;DHT22;29398;45.328;5.558;2022-09-09T04:30:09;16.80;99.90
7738;DHT22;29398;45.328;5.558;2022-09-09T04:31:15;16.80;99.90
7738;DHT22;29398;45.328;5.558;2022-09-09T04:32:19;16.70;99.90
7738;DHT22;29398;45.328;5.558;2022-09-09T04:33:23;16.70;99.90
7738;DHT22;29398;45.328;5.558;2022-09-09T04:34:27;16.70;99.90
7738;DHT22;29398;45.328;5.558;2022-09-09T04:35:30;16.60;99.90
7738;DHT22;29398;45.328;5.558;2022-09-09T04:36:31;16.60;99.90
7738;DHT22;29398;45.328;5.558;2022-09-09T04:37:37;16.60;99.90
7738;DHT22;29398;45.328;5.558;2022-09-09T04:38:39;16.60;99.90
7738;DHT22;29398;45.328;5.558;2022-09-09T04:39:41;16.60;99.90
7738;DHT22;29398;45.328;5.558;2022-09-09T04:40:43;16.60;99.90
7738;DHT22;29398;45.328;5.558;2022-09-09T04:41:46;16.60;99.90
7738;DHT22;29398;45.328;5.558;2022-09-09T04:42:48;16.50;99.90
7738;DHT22;29398;45.328;5.558;2022-09-09T04:43:51;16.50;99.90
7738;DHT22;29398;45.328;5.558;2022-09-09T04:44:55;16.60;99.90
7738;DHT22;29398;45.328;5.558;2022-09-09T04:45:58;16.50;99.90
7738;DHT22;29398;45.328;5.558;2022-09-09T04:47:00;16.50;99.90
7738;DHT22;29398;45.328;5.558;2022-09-09T04:48:02;16.50;99.90
7738;DHT22;29398;45.328;5.558;2022-09-09T04:49:04;16.50;99.90
7738;DHT22;29398;45.328;5.558;2022-09-09T04:50:09;16.50;99.90
7738;DHT22;29398;45.328;5.558;2022-09-09T04:51:12;16.40;99.90
7738;DHT22;29398;45.328;5.558;2022-09-09T04:52:15;16.40;99.90
7738;DHT22;29398;45.328;5.558;2022-09-09T04:53:18;16.40;99.90
7738;DHT22;29398;45.328;5.558;2022-09-09T04:54:20;16.40;99.90
7738;DHT22;29398;45.328;5.558;2022-09-09T04:55:22;16.40;99.90
7738;DHT22;29398;45.328;5.558;2022-09-09T04:56:24;16.40;99.90
7738;DHT22;29398;45.328;5.558;2022-09-09T04:57:31;16.50;99.90
7738;DHT22;29398;45.328;5.558;2022-09-09T04:58:33;16.40;99.90
7738;DHT22;29398;45.328;5.558;2022-09-09T04:59:34;16.50;99.90
7738;DHT22;29398;45.328;5.558;2022-09-09T05:00:37;16.50;99.90
7738;DHT22;29398;45.328;5.558;2022-09-09T05:01:41;16.50;99.90
7738;DHT22;29398;45.328;5.558;2022-09-09T05:02:43;16.40;99.90
7738;DHT22;29398;45.328;5.558;2022-09-09T05:03:45;16.50;99.90
7738;DHT22;29398;45.328;5.558;2022-09-09T05:04:50;16.40;99.90
7738;DHT22;29398;45.328;5.558;2022-09-09T05:05:53;16.50;99.90
7738;DHT22;29398;45.328;5.558;2022-09-09T05:06:56;16.50;99.90
7738;DHT22;29398;45.328;5.558;2022-09-09T05:08:01;16.50;99.90
7738;DHT22;29398;45.328;5.558;2022-09-09T05:09:04;16.40;99.90
7738;DHT22;29398;45.328;5.558;2022-09-09T05:10:06;16.40;99.90
7738;DHT22;29398;45.328;5.558;2022-09-09T05:11:18;16.30;99.90
7738;DHT22;29398;45.328;5.558;2022-09-09T05:12:21;16.30;99.90
7738;DHT22;29398;45.328;5.558;2022-09-09T05:13:26;16.30;99.90
7738;DHT22;29398;45.328;5.558;2022-09-09T05:14:28;16.20;99.90
7738;DHT22;29398;45.328;5.558;2022-09-09T05:15:30;16.30;99.90
7738;DHT22;29398;45.328;5.558;2022-09-09T05:16:32;16.30;99.90
7738;DHT22;29398;45.328;5.558;2022-09-09T05:17:34;16.30;99.90
7738;DHT22;29398;45.328;5.558;2022-09-09T05:18:36;16.30;99.90
7738;DHT22;29398;45.328;5.558;2022-09-09T05:19:38;16.30;99.90
7738;DHT22;29398;45.328;5.558;2022-09-09T05:20:40;16.30;99.90
7738;DHT22;29398;45.328;5.558;2022-09-09T05:21:44;16.40;99.90
7738;DHT22;29398;45.328;5.558;2022-09-09T05:22:47;16.30;99.90
7738;DHT22;29398;45.328;5.558;2022-09-09T05:23:50;16.30;99.90
7738;DHT22;29398;45.328;5.558;2022-09-09T05:24:53;16.20;99.90
7738;DHT22;29398;45.328;5.558;2022-09-09T05:25:55;16.20;99.90
7738;DHT22;29398;45.328;5.558;2022-09-09T05:26:58;16.10;99.90
7738;DHT22;29398;45.328;5.558;2022-09-09T05:28:02;16.00;99.90
7738;DHT22;29398;45.328;5.558;2022-09-09T05:29:04;16.00;99.90
7738;DHT22;29398;45.328;5.558;2022-09-09T05:30:08;16.00;99.90
7738;DHT22;29398;45.328;5.558;2022-09-09T05:31:11;16.00;99.90
7738;DHT22;29398;45.328;5.558;2022-09-09T05:32:14;16.00;99.90
7738;DHT22;29398;45.328;5.558;2022-09-09T05:33:20;16.00;99.90
7738;DHT22;29398;45.328;5.558;2022-09-09T05:34:22;16.10;99.90
7738;DHT22;29398;45.328;5.558;2022-09-09T05:35:25;16.10;99.90
7738;DHT22;29398;45.328;5.558;2022-09-09T05:36:26;16.10;99.90
7738;DHT22;29398;45.328;5.558;2022-09-09T05:37:32;16.10;99.90
7738;DHT22;29398;45.328;5.558;2022-09-09T05:38:34;16.10;99.90
7738;DHT22;29398;45.328;5.558;2022-09-09T05:39:37;16.10;99.90
7738;DHT22;29398;45.328;5.558;2022-09-09T05:40:38;16.10;99.90
7738;DHT22;29398;45.328;5.558;2022-09-09T05:41:43;16.10;99.90
7738;DHT22;29398;45.328;5.558;2022-09-09T05:42:45;16.20;99.90
7738;DHT22;29398;45.328;5.558;2022-09-09T05:43:47;16.20;99.90
7738;DHT22;29398;45.328;5.558;2022-09-09T05:44:50;16.20;99.90
7738;DHT22;29398;45.328;5.558;2022-09-09T05:46:02;16.20;99.90
7738;DHT22;29398;45.328;5.558;2022-09-09T05:47:05;16.30;99.90
7738;DHT22;29398;45.328;5.558;2022-09-09T05:48:09;16.30;99.90
7738;DHT22;29398;45.328;5.558;2022-09-09T05:49:10;16.30;99.90
7738;DHT22;29398;45.328;5.558;2022-09-09T05:50:13;16.30;99.90
7738;DHT22;29398;45.328;5.558;2022-09-09T05:51:20;16.30;99.90
7738;DHT22;29398;45.328;5.558;2022-09-09T05:52:22;16.30;99.90
7738;DHT22;29398;45.328;5.558;2022-09-09T05:53:26;16.40;99.90
7738;DHT22;29398;45.328;5.558;2022-09-09T05:54:29;16.40;99.90
7738;DHT22;29398;45.328;5.558;2022-09-09T05:55:30;16.40;99.90
7738;DHT22;29398;45.328;5.558;2022-09-09T05:56:32;16.50;99.90
7738;DHT22;29398;45.328;5.558;2022-09-09T05:57:34;16.50;99.90
7738;DHT22;29398;45.328;5.558;2022-09-09T05:58:36;16.50;99.90
7738;DHT22;29398;45.328;5.558;2022-09-09T05:59:40;16.40;99.90
7738;DHT22;29398;45.328;5.558;2022-09-09T06:00:43;16.40;99.90
7738;DHT22;29398;45.328;5.558;2022-09-09T06:01:44;16.40;99.90
7738;DHT22;29398;45.328;5.558;2022-09-09T06:02:56;16.40;99.90
7738;DHT22;29398;45.328;5.558;2022-09-09T06:03:57;16.40;99.90
7738;DHT22;29398;45.328;5.558;2022-09-09T06:04:59;16.30;99.90
7738;DHT22;29398;45.328;5.558;2022-09-09T06:06:02;16.40;99.90
7738;DHT22;29398;45.328;5.558;2022-09-09T06:07:06;16.40;99.90
7738;DHT22;29398;45.328;5.558;2022-09-09T06:08:11;16.40;99.90
7738;DHT22;29398;45.328;5.558;2022-09-09T06:09:14;19.40;99.90
7738;DHT22;29398;45.328;5.558;2022-09-09T06:10:17;16.50;99.90
7738;DHT22;29398;45.328;5.558;2022-09-09T06:11:20;16.60;99.90
7738;DHT22;29398;45.328;5.558;2022-09-09T06:12:22;16.60;99.90
7738;DHT22;29398;45.328;5.558;2022-09-09T06:13:24;16.60;99.90
7738;DHT22;29398;45.328;5.558;2022-09-09T06:14:26;16.60;99.90
7738;DHT22;29398;45.328;5.558;2022-09-09T06:15:31;16.60;99.90
7738;DHT22;29398;45.328;5.558;2022-09-09T06:16:33;16.60;99.90
7738;DHT22;29398;45.328;5.558;2022-09-09T06:17:35;16.60;99.90
7738;DHT22;29398;45.328;5.558;2022-09-09T06:18:37;16.70;99.90
7738;DHT22;29398;45.328;5.558;2022-09-09T06:19:39;16.70;99.90
7738;DHT22;29398;45.328;5.558;2022-09-09T06:20:41;16.70;99.90
7738;DHT22;29398;45.328;5.558;2022-09-09T06:21:43;16.70;99.90
7738;DHT22;29398;45.328;5.558;2022-09-09T06:22:46;16.70;99.90
7738;DHT22;29398;45.328;5.558;2022-09-09T06:23:49;16.70;99.90
7738;DHT22;29398;45.328;5.558;2022-09-09T06:24:53;16.70;99.90
7738;DHT22;29398;45.328;5.558;2022-09-09T06:26:04;16.70;99.90
7738;DHT22;29398;45.328;5.558;2022-09-09T06:27:08;16.70;99.90
7738;DHT22;29398;45.328;5.558;2022-09-09T06:28:11;16.80;99.90
7738;DHT22;29398;45.328;5.558;2022-09-09T06:29:12;16.80;99.90
7738;DHT22;29398;45.328;5.558;2022-09-09T06:30:16;16.80;99.90
7738;DHT22;29398;45.328;5.558;2022-09-09T06:31:21;16.80;99.90
7738;DHT22;29398;45.328;5.558;2022-09-09T06:32:24;16.90;99.90
7738;DHT22;29398;45.328;5.558;2022-09-09T06:33:31;17.00;99.90
7738;DHT22;29398;45.328;5.558;2022-09-09T06:34:35;17.10;99.90
7738;DHT22;29398;45.328;5.558;2022-09-09T06:35:38;17.10;99.90
7738;DHT22;29398;45.328;5.558;2022-09-09T06:36:39;17.20;99.90
7738;DHT22;29398;45.328;5.558;2022-09-09T06:37:44;17.30;99.90
7738;DHT22;29398;45.328;5.558;2022-09-09T06:38:47;17.40;99.90
7738;DHT22;29398;45.328;5.558;2022-09-09T06:39:50;17.50;99.90
7738;DHT22;29398;45.328;5.558;2022-09-09T06:40:54;17.50;99.90
7738;DHT22;29398;45.328;5.558;2022-09-09T06:41:55;17.60;99.90
7738;DHT22;29398;45.328;5.558;2022-09-09T06:43:31;17.70;99.90
7738;DHT22;29398;45.328;5.558;2022-09-09T06:44:35;17.80;99.90
7738;DHT22;29398;45.328;5.558;2022-09-09T06:45:40;17.90;99.90
7738;DHT22;29398;45.328;5.558;2022-09-09T06:46:43;18.00;99.90
7738;DHT22;29398;45.328;5.558;2022-09-09T06:47:48;18.10;99.90
7738;DHT22;29398;45.328;5.558;2022-09-09T06:48:50;18.30;99.90
7738;DHT22;29398;45.328;5.558;2022-09-09T06:49:52;18.40;99.90
7738;DHT22;29398;45.328;5.558;2022-09-09T06:51:01;18.50;99.90
7738;DHT22;29398;45.328;5.558;2022-09-09T06:52:04;18.60;99.90
7738;DHT22;29398;45.328;5.558;2022-09-09T06:53:07;18.70;99.90
7738;DHT22;29398;45.328;5.558;2022-09-09T06:54:08;18.90;99.90
7738;DHT22;29398;45.328;5.558;2022-09-09T06:55:11;19.00;99.90
7738;DHT22;29398;45.328;5.558;2022-09-09T06:56:23;19.20;99.90
7738;DHT22;29398;45.328;5.558;2022-09-09T06:57:27;19.40;99.90
7738;DHT22;29398;45.328;5.558;2022-09-09T06:58:31;19.60;99.90
7738;DHT22;29398;45.328;5.558;2022-09-09T06:59:34;19.80;99.90
7738;DHT22;29398;45.328;5.558;2022-09-09T07:00:37;20.10;99.90
7738;DHT22;29398;45.328;5.558;2022-09-09T07:01:40;20.40;99.90
7738;DHT22;29398;45.328;5.558;2022-09-09T07:02:45;20.80;99.90
7738;DHT22;29398;45.328;5.558;2022-09-09T07:03:48;21.10;99.90
7738;DHT22;29398;45.328;5.558;2022-09-09T07:04:52;21.30;99.90
7738;DHT22;29398;45.328;5.558;2022-09-09T07:05:56;21.60;99.90